createdAt,value
2022-11-07T00:01:50.528Z,7.23
2022-11-07T00:06:54.622Z,7.15
2022-11-07T00:11:57.899Z,7.04
2022-11-07T00:17:01.428Z,6.92
2022-11-07T00:22:04.679Z,6.89
2022-11-07T00:27:08.655Z,6.84
2022-11-07T00:32:11.730Z,6.82
2022-11-07T00:37:15.178Z,6.79
2022-11-07T00:42:19.087Z,6.78
2022-11-07T00:47:22.453Z,6.79
2022-11-07T00:52:26.622Z,6.85
2022-11-07T00:57:31.300Z,6.88
2022-11-07T01:02:34.610Z,7.18
2022-11-07T01:07:39.348Z,7.20
2022-11-07T01:12:42.357Z,7.05
2022-11-07T01:17:45.771Z,7.05
2022-11-07T01:22:49.318Z,6.92
2022-11-07T01:27:53.180Z,6.84
2022-11-07T01:32:56.902Z,6.77
2022-11-07T01:38:00.849Z,6.80
2022-11-07T01:43:03.887Z,6.84
2022-11-07T01:48:08.329Z,7.16
2022-11-07T01:53:11.677Z,7.03
2022-11-07T01:58:15.402Z,6.92
2022-11-07T02:03:21.617Z,6.87
2022-11-07T02:08:27.430Z,6.92
2022-11-07T02:13:32.898Z,7.03
2022-11-07T02:18:39.118Z,7.01
2022-11-07T02:23:51.430Z,6.83
2022-11-07T02:28:57.284Z,6.79
2022-11-07T02:34:00.324Z,6.73
2022-11-07T02:39:03.698Z,6.66
2022-11-07T02:44:11.630Z,6.58
2022-11-07T02:49:14.679Z,6.51
2022-11-07T02:54:17.968Z,6.45
2022-11-07T02:59:26.617Z,6.40
2022-11-07T03:04:30.360Z,6.40
2022-11-07T03:09:33.299Z,6.56
2022-11-07T03:14:37.434Z,6.49
2022-11-07T03:19:40.376Z,6.39
2022-11-07T03:24:43.240Z,6.29
2022-11-07T03:29:46.180Z,6.28
2022-11-07T03:34:49.111Z,6.22
2022-11-07T03:39:52.162Z,6.16
2022-11-07T03:44:55.119Z,6.10
2022-11-07T03:49:58.098Z,6.08
2022-11-07T03:55:03.618Z,6.18
2022-11-07T04:00:07.582Z,6.18
2022-11-07T04:05:19.670Z,6.08
2022-11-07T04:10:22.585Z,6.02
2022-11-07T04:15:44.705Z,6.07
2022-11-07T04:20:47.923Z,6.22
2022-11-07T04:26:09.746Z,6.18
2022-11-07T04:31:12.742Z,6.18
2022-11-07T04:36:16.200Z,6.11
2022-11-07T04:41:21.948Z,6.09
2022-11-07T04:46:25.322Z,6.16
2022-11-07T04:51:28.525Z,6.21
2022-11-07T04:56:34.480Z,6.17
2022-11-07T05:01:37.943Z,6.05
2022-11-07T05:06:42.171Z,6.06
2022-11-07T05:11:47.358Z,6.09
2022-11-07T05:16:52.769Z,6.12
2022-11-07T05:22:21.907Z,6.04
2022-11-07T05:27:26.400Z,6.09
2022-11-07T05:32:29.544Z,6.24
2022-11-07T05:37:33.804Z,6.30
2022-11-07T05:42:36.750Z,6.27
2022-11-07T05:47:40.589Z,6.42
2022-11-07T05:52:43.651Z,6.52
2022-11-07T05:57:47.456Z,6.74
2022-11-07T06:03:00.648Z,6.99
2022-11-07T06:08:04.243Z,7.15
2022-11-07T06:13:10.528Z,7.38
2022-11-07T06:18:19.778Z,7.73
2022-11-07T06:23:23.771Z,8.64
2022-11-07T06:28:27.304Z,11.85
2022-11-07T06:33:31.204Z,16.84
2022-11-07T06:38:35.749Z,19.49
2022-11-07T06:43:39.728Z,20.53
2022-11-07T07:01:53.252Z,20.96
2022-11-07T07:06:56.742Z,21.45
2022-11-07T07:12:00.335Z,22.14
2022-11-07T07:17:07.264Z,22.15
2022-11-07T07:22:14.203Z,21.24
2022-11-07T07:27:18.438Z,22.40
2022-11-07T07:32:40.646Z,22.89
2022-11-07T07:37:44.363Z,24.08
2022-11-07T07:42:48.173Z,23.73
2022-11-07T07:47:53.244Z,23.03
2022-11-07T07:52:58.295Z,23.75
2022-11-07T07:58:01.364Z,24.66
2022-11-07T08:03:09.319Z,24.29
2022-11-07T08:08:12.672Z,24.69
2022-11-07T08:13:16.485Z,23.98
2022-11-07T08:18:22.149Z,25.09
2022-11-07T08:23:25.280Z,24.74
2022-11-07T08:28:31.893Z,23.08
2022-11-07T08:33:36.609Z,23.39
2022-11-07T08:38:39.966Z,22.69
2022-11-07T08:43:42.946Z,23.31
2022-11-07T08:48:46.211Z,24.04
2022-11-07T08:53:49.289Z,24.22
2022-11-07T08:58:52.431Z,24.42
2022-11-07T09:03:58.271Z,24.24
2022-11-07T09:09:02.776Z,23.81
2022-11-07T09:14:06.316Z,24.29
2022-11-07T09:19:09.744Z,24.55
2022-11-07T09:24:12.946Z,23.73
2022-11-07T09:29:16.542Z,23.08
2022-11-07T09:34:20.055Z,23.89
2022-11-07T09:39:23.753Z,23.68
2022-11-07T09:44:45.174Z,24.01
2022-11-07T09:49:56.075Z,23.89
2022-11-07T09:55:24.134Z,23.16
2022-11-07T10:00:31.578Z,23.63
2022-11-07T10:05:49.489Z,23.37
2022-11-07T10:11:00.168Z,22.99
2022-11-07T10:16:21.873Z,23.00
2022-11-07T10:21:40.208Z,22.75
2022-11-07T10:26:45.791Z,22.12
2022-11-07T10:31:59.507Z,22.18
2022-11-07T10:37:03.410Z,21.71
2022-11-07T10:42:14.525Z,21.43
2022-11-07T10:47:20.880Z,20.73
2022-11-07T10:52:25.014Z,21.24
2022-11-07T10:57:30.794Z,20.78
2022-11-07T11:03:02.847Z,20.28
2022-11-07T11:08:36.842Z,21.31
2022-11-07T11:13:39.988Z,20.87
2022-11-07T11:18:51.015Z,20.33
2022-11-07T11:23:55.254Z,20.04
2022-11-07T11:29:09.678Z,20.05
2022-11-07T11:34:26.958Z,19.96
2022-11-07T11:39:42.145Z,19.88
2022-11-07T11:44:46.863Z,20.23
2022-11-07T11:50:01.185Z,20.56
2022-11-07T11:55:14.251Z,20.38
2022-11-07T12:00:22.181Z,20.42
2022-11-07T12:05:59.882Z,21.77
2022-11-07T12:11:13.479Z,22.20
2022-11-07T12:16:40.770Z,23.36
2022-11-07T12:22:14.235Z,23.97
2022-11-07T12:27:50.077Z,23.20
2022-11-07T12:33:05.436Z,22.89
2022-11-07T12:38:25.461Z,24.41
2022-11-07T12:43:56.904Z,24.50
2022-11-07T12:49:23.731Z,24.20
2022-11-07T12:54:39.432Z,24.27
2022-11-07T12:59:47.801Z,23.82
2022-11-07T13:05:19.736Z,22.25
2022-11-07T13:10:41.065Z,22.47
2022-11-07T13:16:13.665Z,21.28
2022-11-07T13:21:08.077Z,20.89
2022-11-07T13:26:44.617Z,21.33
2022-11-07T13:31:37.710Z,22.33
2022-11-07T13:36:41.777Z,20.14
2022-11-07T13:41:47.192Z,19.55
2022-11-07T13:46:54.232Z,19.23
2022-11-07T13:52:04.932Z,19.10
2022-11-07T13:57:28.637Z,19.06
2022-11-07T14:02:34.516Z,18.86
2022-11-07T14:07:41.071Z,18.65
2022-11-07T14:12:45.223Z,18.68
2022-11-07T14:17:48.853Z,18.26
2022-11-07T14:22:55.926Z,18.11
2022-11-07T14:28:00.763Z,17.73
2022-11-07T14:33:05.112Z,17.49
2022-11-07T14:38:17.640Z,17.19
2022-11-07T14:43:24.719Z,16.91
2022-11-07T14:48:29.471Z,16.74
2022-11-07T14:53:56.910Z,16.80
2022-11-07T14:59:00.762Z,16.72
2022-11-07T15:04:27.263Z,16.55
2022-11-07T15:09:34.272Z,16.46
2022-11-07T15:14:38.605Z,16.19
2022-11-07T15:19:41.996Z,16.01
2022-11-07T15:24:48.259Z,15.94
2022-11-07T15:30:00.917Z,15.80
2022-11-07T15:35:43.031Z,15.38
2022-11-07T15:40:39.477Z,15.01
2022-11-07T15:45:44.137Z,14.63
2022-11-07T15:50:50.017Z,14.22
2022-11-07T15:55:56.826Z,13.82
2022-11-07T16:00:59.702Z,13.53
2022-11-07T16:06:14.502Z,13.13
2022-11-07T16:11:17.681Z,12.78
2022-11-07T16:16:24.563Z,12.45
2022-11-07T16:21:31.144Z,12.20
2022-11-07T16:26:39.993Z,12.01
2022-11-07T16:31:44.894Z,11.82
2022-11-07T16:36:50.243Z,11.61
2022-11-07T16:41:55.357Z,11.28
2022-11-07T16:46:58.939Z,11.17
2022-11-07T16:52:03.695Z,10.99
2022-11-07T16:57:13.481Z,10.90
2022-11-07T17:02:23.094Z,10.69
2022-11-07T17:07:26.424Z,10.55
2022-11-07T17:12:30.067Z,10.46
2022-11-07T17:17:34.358Z,10.42
2022-11-07T17:22:37.536Z,10.31
2022-11-07T17:27:43.113Z,10.27
2022-11-07T17:32:46.795Z,10.16
2022-11-07T17:37:52.877Z,10.13
2022-11-07T17:42:59.073Z,10.06
2022-11-07T17:48:04.141Z,9.88
2022-11-07T17:53:07.778Z,9.82
2022-11-07T17:58:11.365Z,9.76
2022-11-07T18:03:15.309Z,9.67
2022-11-07T18:08:45.965Z,9.53
2022-11-07T18:13:42.881Z,9.48
2022-11-07T18:18:46.622Z,9.39
2022-11-07T18:23:49.675Z,9.37
2022-11-07T18:28:56.168Z,9.26
2022-11-07T18:34:02.067Z,9.21
2022-11-07T18:39:13.483Z,9.12
2022-11-07T18:44:17.235Z,9.10
2022-11-07T18:49:20.363Z,9.10
2022-11-07T18:54:25.749Z,9.11
2022-11-07T18:59:28.895Z,9.15
2022-11-07T19:04:32.368Z,9.17
2022-11-07T19:09:37.144Z,9.22
2022-11-07T19:14:40.379Z,9.26
2022-11-07T19:19:43.745Z,9.40
2022-11-07T19:24:47.301Z,9.47
2022-11-07T19:29:51.297Z,9.55
2022-11-07T19:34:55.063Z,9.78
2022-11-07T19:39:58.068Z,9.95
2022-11-07T19:45:02.340Z,10.04
2022-11-07T19:50:05.934Z,10.12
2022-11-07T19:55:10.074Z,10.37
2022-11-07T20:00:14.363Z,10.59
2022-11-07T20:05:24.308Z,10.87
2022-11-07T20:10:27.872Z,11.08
2022-11-07T20:15:31.384Z,11.18
2022-11-07T20:20:35.012Z,11.21
2022-11-07T20:25:41.597Z,11.13
2022-11-07T20:30:45.107Z,10.90
2022-11-07T20:36:03.305Z,10.93
2022-11-07T20:41:07.399Z,10.86
2022-11-07T20:46:16.137Z,10.66
2022-11-07T20:51:22.780Z,10.40
2022-11-07T20:56:28.402Z,10.18
2022-11-07T21:01:36.734Z,10.14
2022-11-07T21:06:41.052Z,10.27
2022-11-07T21:11:45.052Z,10.31
2022-11-07T21:16:48.554Z,10.34
2022-11-07T21:21:52.190Z,10.31
2022-11-07T21:26:56.231Z,10.23
2022-11-07T21:32:00.279Z,10.18
2022-11-07T21:37:12.916Z,10.02
2022-11-07T21:42:16.011Z,10.05
2022-11-07T21:47:19.051Z,9.87
2022-11-07T21:52:22.846Z,9.73
2022-11-07T21:57:27.287Z,9.63
2022-11-07T22:02:30.467Z,9.70
2022-11-07T22:07:35.606Z,9.87
2022-11-07T22:12:39.302Z,9.95
2022-11-07T22:17:43.560Z,10.04
2022-11-07T22:22:47.030Z,10.03
2022-11-07T22:27:51.601Z,9.98
2022-11-07T22:32:54.930Z,9.84
2022-11-07T22:37:59.181Z,9.65
2022-11-07T22:43:02.965Z,9.57
2022-11-07T22:48:07.686Z,9.47
2022-11-07T22:53:13.799Z,9.36
2022-11-07T22:58:18.199Z,9.28
2022-11-07T23:03:22.116Z,9.11
2022-11-07T23:08:25.682Z,8.97
2022-11-07T23:13:30.600Z,8.90
2022-11-07T23:18:33.928Z,8.93
2022-11-07T23:23:42.301Z,9.04
2022-11-07T23:28:46.807Z,9.05
2022-11-07T23:33:49.899Z,9.06
2022-11-07T23:38:53.397Z,9.05
2022-11-07T23:43:56.610Z,9.02
2022-11-07T23:49:19.219Z,8.99
2022-11-07T23:54:41.118Z,8.95
